createdAt,value
2023-03-30T00:00:27.440Z,8.23
2023-03-30T00:10:30.103Z,8.87
2023-03-30T00:20:33.108Z,8.80
2023-03-30T00:30:37.504Z,7.73
2023-03-30T00:40:42.515Z,7.60
2023-03-30T00:50:49.733Z,7.60
2023-03-30T01:00:53.338Z,7.90
2023-03-30T01:11:02.974Z,6.90
2023-03-30T01:21:14.004Z,8.37
2023-03-30T01:31:29.404Z,7.23
2023-03-30T01:41:40.807Z,8.50
2023-03-30T01:51:48.787Z,7.40
2023-03-30T02:01:55.353Z,7.77
2023-03-30T02:12:00.018Z,8.00
2023-03-30T02:22:12.025Z,6.70
2023-03-30T02:32:27.136Z,7.37
2023-03-30T02:43:03.706Z,8.10
2023-03-30T02:53:25.457Z,6.93
2023-03-30T03:03:37.759Z,7.17
2023-03-30T03:13:40.869Z,7.57
2023-03-30T03:23:44.462Z,7.23
2023-03-30T03:33:53.695Z,8.53
2023-03-30T03:44:04.198Z,8.30
2023-03-30T03:54:07.128Z,7.57
2023-03-30T04:04:10.259Z,8.17
2023-03-30T04:14:14.860Z,8.10
2023-03-30T04:24:36.491Z,7.70
2023-03-30T04:34:57.263Z,8.27
2023-03-30T04:45:14.424Z,8.97
2023-03-30T04:55:37.286Z,8.43
2023-03-30T05:06:01.517Z,8.57
2023-03-30T05:16:40.711Z,11.00
2023-03-30T05:27:02.585Z,9.17
2023-03-30T05:37:18.086Z,8.83
2023-03-30T05:47:33.542Z,9.93
2023-03-30T05:57:51.020Z,9.37
2023-03-30T06:08:15.514Z,8.80
2023-03-30T06:18:25.161Z,9.80
2023-03-30T06:28:36.290Z,8.57
2023-03-30T06:38:40.562Z,9.53
2023-03-30T06:48:45.532Z,9.03
2023-03-30T06:59:06.333Z,9.70
2023-03-30T07:09:22.145Z,9.40
2023-03-30T07:19:27.126Z,9.80
2023-03-30T07:29:35.148Z,9.47
2023-03-30T07:39:42.498Z,10.37
2023-03-30T07:49:48.492Z,9.97
2023-03-30T07:59:56.994Z,11.17
2023-03-30T08:10:15.130Z,9.87
2023-03-30T08:20:55.118Z,9.83
2023-03-30T08:31:08.416Z,9.50
2023-03-30T08:41:28.065Z,9.98
2023-03-30T08:51:48.466Z,10.50
2023-03-30T09:02:22.943Z,11.27
2023-03-30T09:12:44.750Z,10.50
2023-03-30T09:22:47.746Z,11.70
2023-03-30T09:33:08.059Z,8.33
2023-03-30T09:43:44.444Z,10.97
2023-03-30T09:53:53.004Z,10.87
2023-03-30T10:04:16.793Z,10.40
2023-03-30T10:14:42.580Z,9.73
2023-03-30T10:24:55.906Z,10.85
2023-03-30T10:35:02.144Z,11.33
2023-03-30T10:45:20.958Z,8.57
2023-03-30T10:55:34.524Z,8.88
2023-03-30T11:05:50.009Z,9.27
2023-03-30T11:15:57.134Z,8.80
2023-03-30T11:26:08.986Z,8.63
2023-03-30T11:36:40.890Z,8.70
2023-03-30T11:46:56.209Z,8.95
2023-03-30T11:57:21.518Z,8.38
2023-03-30T12:07:49.781Z,8.23
2023-03-30T12:18:30.741Z,8.18
2023-03-30T12:29:11.295Z,8.95
2023-03-30T12:39:57.563Z,8.43
2023-03-30T12:50:08.436Z,7.63
2023-03-30T13:00:28.991Z,7.03
2023-03-30T13:10:39.453Z,7.38
2023-03-30T13:21:08.455Z,6.72
2023-03-30T13:31:23.282Z,6.40
2023-03-30T13:41:58.406Z,7.82
2023-03-30T13:52:10.159Z,6.93
2023-03-30T14:02:18.018Z,7.13
2023-03-30T14:12:20.433Z,7.60
2023-03-30T14:22:31.584Z,6.63
2023-03-30T14:32:36.712Z,4.60
2023-03-30T14:42:45.315Z,4.00
2023-03-30T14:52:54.356Z,4.65
2023-03-30T15:02:59.159Z,3.88
2023-03-30T15:13:07.733Z,3.70
2023-03-30T15:23:15.476Z,4.78
2023-03-30T15:33:28.388Z,4.40
2023-03-30T15:43:38.114Z,4.93
2023-03-30T15:53:45.341Z,5.65
2023-03-30T16:04:01.589Z,6.22
2023-03-30T16:14:07.686Z,6.25
2023-03-30T16:24:13.732Z,5.97
2023-03-30T16:34:20.650Z,6.15
2023-03-30T16:44:26.217Z,6.10
2023-03-30T16:54:32.972Z,6.75
2023-03-30T17:04:37.405Z,7.80
2023-03-30T17:14:44.119Z,8.02
2023-03-30T17:24:47.184Z,8.15
2023-03-30T17:34:54.579Z,8.00
2023-03-30T17:45:11.846Z,8.25
2023-03-30T17:55:23.338Z,10.05
2023-03-30T18:05:32.154Z,8.23
2023-03-30T18:15:40.023Z,8.50
2023-03-30T18:25:50.783Z,7.80
2023-03-30T18:35:57.292Z,8.43
2023-03-30T18:46:17.128Z,9.50
2023-03-30T18:56:28.358Z,8.43
2023-03-30T19:06:35.721Z,8.45
2023-03-30T19:16:39.331Z,8.25
2023-03-30T19:26:55.459Z,8.90
2023-03-30T19:37:02.424Z,9.35
2023-03-30T19:47:12.444Z,11.38
2023-03-30T19:57:18.708Z,9.48
2023-03-30T20:07:27.000Z,9.75
2023-03-30T20:17:56.697Z,9.95
2023-03-30T20:27:59.548Z,10.82
2023-03-30T20:38:11.758Z,10.40
2023-03-30T20:48:30.724Z,11.45
2023-03-30T20:58:37.034Z,15.37
2023-03-30T21:08:41.880Z,11.70
2023-03-30T21:18:44.205Z,12.13
2023-03-30T21:28:46.480Z,10.80
2023-03-30T21:38:48.923Z,11.68
2023-03-30T21:48:54.756Z,11.15
2023-03-30T21:58:57.654Z,12.20
2023-03-30T22:09:02.336Z,11.50
2023-03-30T22:19:04.992Z,10.75
2023-03-30T22:29:09.937Z,10.48
2023-03-30T22:39:13.044Z,10.50
2023-03-30T22:49:15.752Z,9.05
2023-03-30T22:59:21.332Z,9.25
2023-03-30T23:09:24.491Z,9.73
2023-03-30T23:19:29.585Z,10.43
2023-03-30T23:29:36.549Z,9.98
2023-03-30T23:39:39.148Z,11.45
2023-03-30T23:49:48.616Z,10.32
2023-03-30T23:59:50.897Z,8.40
